sensor_id;sensor_type;location;lat;lon;timestamp;P1;durP1;ratioP1;P2;durP2;ratioP2
2406;SDS011;37709;53.480;9.688;2023-05-24T00:02:21;21.17;;;5.70;;
2406;SDS011;37709;53.480;9.688;2023-05-24T00:04:52;16.53;;;5.60;;
2406;SDS011;37709;53.480;9.688;2023-05-24T00:07:20;20.37;;;7.23;;
2406;SDS011;37709;53.480;9.688;2023-05-24T00:09:48;14.03;;;4.87;;
2406;SDS011;37709;53.480;9.688;2023-05-24T00:12:15;19.03;;;4.60;;
2406;SDS011;37709;53.480;9.688;2023-05-24T00:14:43;17.13;;;4.67;;
2406;SDS011;37709;53.480;9.688;2023-05-24T00:17:10;19.53;;;5.40;;
2406;SDS011;37709;53.480;9.688;2023-05-24T00:19:38;20.60;;;5.70;;
2406;SDS011;37709;53.480;9.688;2023-05-24T00:22:05;17.83;;;5.70;;
2406;SDS011;37709;53.480;9.688;2023-05-24T00:24:33;15.47;;;5.33;;
2406;SDS011;37709;53.480;9.688;2023-05-24T00:27:00;24.00;;;5.60;;
2406;SDS011;37709;53.480;9.688;2023-05-24T00:29:29;17.93;;;6.30;;
2406;SDS011;37709;53.480;9.688;2023-05-24T00:31:59;20.97;;;5.07;;
2406;SDS011;37709;53.480;9.688;2023-05-24T00:34:26;16.53;;;5.63;;
2406;SDS011;37709;53.480;9.688;2023-05-24T00:36:54;20.60;;;5.57;;
2406;SDS011;37709;53.480;9.688;2023-05-24T00:39:22;19.43;;;5.77;;
2406;SDS011;37709;53.480;9.688;2023-05-24T00:41:50;24.07;;;5.50;;
2406;SDS011;37709;53.480;9.688;2023-05-24T00:44:17;24.83;;;6.73;;
2406;SDS011;37709;53.480;9.688;2023-05-24T00:46:44;18.17;;;5.80;;
2406;SDS011;37709;53.480;9.688;2023-05-24T00:49:12;20.97;;;6.90;;
2406;SDS011;37709;53.480;9.688;2023-05-24T00:51:39;20.70;;;6.63;;
2406;SDS011;37709;53.480;9.688;2023-05-24T00:54:07;13.23;;;5.37;;
2406;SDS011;37709;53.480;9.688;2023-05-24T00:56:34;16.23;;;6.10;;
2406;SDS011;37709;53.480;9.688;2023-05-24T00:59:02;18.63;;;5.17;;
2406;SDS011;37709;53.480;9.688;2023-05-24T01:01:29;15.27;;;5.90;;
2406;SDS011;37709;53.480;9.688;2023-05-24T01:04:01;17.60;;;6.00;;
2406;SDS011;37709;53.480;9.688;2023-05-24T01:06:31;17.37;;;5.63;;
2406;SDS011;37709;53.480;9.688;2023-05-24T01:09:12;19.90;;;6.03;;
2406;SDS011;37709;53.480;9.688;2023-05-24T01:17:18;21.87;;;5.50;;
2406;SDS011;37709;53.480;9.688;2023-05-24T01:19:55;20.73;;;5.67;;
2406;SDS011;37709;53.480;9.688;2023-05-24T01:22:36;17.97;;;5.73;;
2406;SDS011;37709;53.480;9.688;2023-05-24T01:25:11;22.67;;;7.10;;
2406;SDS011;37709;53.480;9.688;2023-05-24T01:27:43;19.50;;;6.47;;
2406;SDS011;37709;53.480;9.688;2023-05-24T01:30:12;17.63;;;6.10;;
2406;SDS011;37709;53.480;9.688;2023-05-24T01:32:39;21.40;;;6.07;;
2406;SDS011;37709;53.480;9.688;2023-05-24T01:35:07;21.60;;;5.87;;
2406;SDS011;37709;53.480;9.688;2023-05-24T01:37:35;16.50;;;6.50;;
2406;SDS011;37709;53.480;9.688;2023-05-24T01:40:02;13.87;;;5.60;;
2406;SDS011;37709;53.480;9.688;2023-05-24T01:45:47;13.33;;;5.93;;
2406;SDS011;37709;53.480;9.688;2023-05-24T01:48:20;14.93;;;5.60;;
2406;SDS011;37709;53.480;9.688;2023-05-24T01:50:59;17.73;;;5.73;;
2406;SDS011;37709;53.480;9.688;2023-05-24T01:53:31;18.30;;;4.90;;
2406;SDS011;37709;53.480;9.688;2023-05-24T01:56:01;19.20;;;6.40;;
2406;SDS011;37709;53.480;9.688;2023-05-24T01:58:30;26.63;;;6.50;;
2406;SDS011;37709;53.480;9.688;2023-05-24T02:00:58;13.97;;;6.13;;
2406;SDS011;37709;53.480;9.688;2023-05-24T02:03:26;14.87;;;5.57;;
2406;SDS011;37709;53.480;9.688;2023-05-24T02:05:54;19.43;;;7.17;;
2406;SDS011;37709;53.480;9.688;2023-05-24T02:08:21;14.93;;;6.17;;
2406;SDS011;37709;53.480;9.688;2023-05-24T02:10:50;18.00;;;5.30;;
2406;SDS011;37709;53.480;9.688;2023-05-24T02:13:18;22.63;;;5.70;;
2406;SDS011;37709;53.480;9.688;2023-05-24T02:15:46;15.50;;;5.50;;
2406;SDS011;37709;53.480;9.688;2023-05-24T02:18:13;18.33;;;5.97;;
2406;SDS011;37709;53.480;9.688;2023-05-24T02:20:44;19.50;;;6.20;;
2406;SDS011;37709;53.480;9.688;2023-05-24T02:23:12;18.40;;;5.83;;
2406;SDS011;37709;53.480;9.688;2023-05-24T02:25:40;13.40;;;6.13;;
2406;SDS011;37709;53.480;9.688;2023-05-24T02:28:08;17.03;;;5.40;;
2406;SDS011;37709;53.480;9.688;2023-05-24T02:30:35;16.43;;;6.63;;
2406;SDS011;37709;53.480;9.688;2023-05-24T02:33:04;17.30;;;5.70;;
2406;SDS011;37709;53.480;9.688;2023-05-24T02:35:31;18.40;;;6.10;;
2406;SDS011;37709;53.480;9.688;2023-05-24T02:38:00;16.83;;;5.00;;
2406;SDS011;37709;53.480;9.688;2023-05-24T02:40:29;24.43;;;6.67;;
2406;SDS011;37709;53.480;9.688;2023-05-24T02:42:56;17.00;;;5.50;;
2406;SDS011;37709;53.480;9.688;2023-05-24T02:45:24;18.13;;;6.00;;
2406;SDS011;37709;53.480;9.688;2023-05-24T02:47:52;15.13;;;5.30;;
2406;SDS011;37709;53.480;9.688;2023-05-24T02:50:19;16.20;;;5.77;;
2406;SDS011;37709;53.480;9.688;2023-05-24T02:52:47;12.90;;;4.93;;
2406;SDS011;37709;53.480;9.688;2023-05-24T02:55:14;14.17;;;5.50;;
2406;SDS011;37709;53.480;9.688;2023-05-24T02:57:42;16.17;;;5.70;;
2406;SDS011;37709;53.480;9.688;2023-05-24T03:00:10;18.87;;;5.90;;
2406;SDS011;37709;53.480;9.688;2023-05-24T03:02:39;13.80;;;5.33;;
2406;SDS011;37709;53.480;9.688;2023-05-24T03:05:07;14.13;;;5.70;;
2406;SDS011;37709;53.480;9.688;2023-05-24T03:07:35;16.40;;;6.07;;
2406;SDS011;37709;53.480;9.688;2023-05-24T03:10:02;16.63;;;5.20;;
2406;SDS011;37709;53.480;9.688;2023-05-24T03:12:30;20.53;;;6.50;;
2406;SDS011;37709;53.480;9.688;2023-05-24T03:14:57;17.33;;;5.57;;
2406;SDS011;37709;53.480;9.688;2023-05-24T03:17:26;20.27;;;6.27;;
2406;SDS011;37709;53.480;9.688;2023-05-24T03:19:55;13.53;;;5.50;;
2406;SDS011;37709;53.480;9.688;2023-05-24T03:22:22;20.97;;;5.40;;
2406;SDS011;37709;53.480;9.688;2023-05-24T03:24:49;21.20;;;6.67;;
2406;SDS011;37709;53.480;9.688;2023-05-24T03:27:17;23.80;;;6.20;;
2406;SDS011;37709;53.480;9.688;2023-05-24T03:29:45;18.23;;;6.80;;
2406;SDS011;37709;53.480;9.688;2023-05-24T03:32:14;15.87;;;5.53;;
2406;SDS011;37709;53.480;9.688;2023-05-24T03:34:41;16.43;;;5.60;;
2406;SDS011;37709;53.480;9.688;2023-05-24T03:37:09;20.37;;;5.77;;
2406;SDS011;37709;53.480;9.688;2023-05-24T03:39:37;20.80;;;6.07;;
2406;SDS011;37709;53.480;9.688;2023-05-24T03:42:29;18.03;;;5.50;;
2406;SDS011;37709;53.480;9.688;2023-05-24T03:44:57;17.47;;;5.63;;
2406;SDS011;37709;53.480;9.688;2023-05-24T03:47:24;18.30;;;5.73;;
2406;SDS011;37709;53.480;9.688;2023-05-24T03:49:52;19.00;;;5.10;;
2406;SDS011;37709;53.480;9.688;2023-05-24T03:52:19;19.57;;;6.40;;
2406;SDS011;37709;53.480;9.688;2023-05-24T03:54:46;19.80;;;6.10;;
2406;SDS011;37709;53.480;9.688;2023-05-24T03:57:15;16.90;;;6.23;;
2406;SDS011;37709;53.480;9.688;2023-05-24T03:59:42;19.47;;;5.37;;
2406;SDS011;37709;53.480;9.688;2023-05-24T04:02:10;17.87;;;6.40;;
2406;SDS011;37709;53.480;9.688;2023-05-24T04:04:37;20.30;;;6.77;;
2406;SDS011;37709;53.480;9.688;2023-05-24T04:07:05;18.33;;;6.00;;
2406;SDS011;37709;53.480;9.688;2023-05-24T04:09:33;13.10;;;4.60;;
2406;SDS011;37709;53.480;9.688;2023-05-24T04:12:00;17.23;;;4.90;;
2406;SDS011;37709;53.480;9.688;2023-05-24T04:14:28;14.73;;;5.50;;
2406;SDS011;37709;53.480;9.688;2023-05-24T04:16:55;18.83;;;6.50;;
2406;SDS011;37709;53.480;9.688;2023-05-24T04:19:23;19.30;;;5.40;;
2406;SDS011;37709;53.480;9.688;2023-05-24T04:21:50;20.80;;;6.07;;
2406;SDS011;37709;53.480;9.688;2023-05-24T04:24:17;19.57;;;6.23;;
2406;SDS011;37709;53.480;9.688;2023-05-24T04:26:44;20.03;;;5.97;;
2406;SDS011;37709;53.480;9.688;2023-05-24T04:29:13;22.40;;;6.40;;
2406;SDS011;37709;53.480;9.688;2023-05-24T04:31:40;19.13;;;6.50;;
2406;SDS011;37709;53.480;9.688;2023-05-24T04:34:10;19.13;;;7.27;;
2406;SDS011;37709;53.480;9.688;2023-05-24T04:36:39;17.80;;;6.63;;
2406;SDS011;37709;53.480;9.688;2023-05-24T04:39:08;17.97;;;6.43;;
2406;SDS011;37709;53.480;9.688;2023-05-24T04:41:37;20.00;;;6.00;;
2406;SDS011;37709;53.480;9.688;2023-05-24T04:44:04;19.40;;;6.67;;
2406;SDS011;37709;53.480;9.688;2023-05-24T04:46:31;20.17;;;5.67;;
2406;SDS011;37709;53.480;9.688;2023-05-24T04:49:01;18.40;;;6.13;;
2406;SDS011;37709;53.480;9.688;2023-05-24T04:51:31;20.40;;;6.13;;
2406;SDS011;37709;53.480;9.688;2023-05-24T04:53:58;20.20;;;6.60;;
2406;SDS011;37709;53.480;9.688;2023-05-24T04:56:27;20.90;;;6.37;;
2406;SDS011;37709;53.480;9.688;2023-05-24T04:58:54;26.53;;;6.73;;
2406;SDS011;37709;53.480;9.688;2023-05-24T05:01:21;18.97;;;5.47;;
2406;SDS011;37709;53.480;9.688;2023-05-24T05:03:49;23.93;;;8.10;;
2406;SDS011;37709;53.480;9.688;2023-05-24T05:06:17;23.73;;;7.00;;
2406;SDS011;37709;53.480;9.688;2023-05-24T05:08:44;18.70;;;7.27;;
2406;SDS011;37709;53.480;9.688;2023-05-24T05:11:12;22.07;;;6.20;;
2406;SDS011;37709;53.480;9.688;2023-05-24T05:13:40;23.77;;;7.47;;
2406;SDS011;37709;53.480;9.688;2023-05-24T05:16:07;23.07;;;6.50;;
2406;SDS011;37709;53.480;9.688;2023-05-24T05:18:35;22.50;;;6.83;;
2406;SDS011;37709;53.480;9.688;2023-05-24T05:21:02;27.40;;;8.30;;
2406;SDS011;37709;53.480;9.688;2023-05-24T05:23:30;27.17;;;7.40;;
2406;SDS011;37709;53.480;9.688;2023-05-24T05:25:57;21.43;;;6.70;;
2406;SDS011;37709;53.480;9.688;2023-05-24T05:28:25;25.20;;;7.60;;
2406;SDS011;37709;53.480;9.688;2023-05-24T05:30:52;27.27;;;7.10;;
2406;SDS011;37709;53.480;9.688;2023-05-24T05:33:19;27.97;;;8.20;;
2406;SDS011;37709;53.480;9.688;2023-05-24T05:35:47;28.57;;;6.90;;
2406;SDS011;37709;53.480;9.688;2023-05-24T05:38:14;22.90;;;7.43;;
2406;SDS011;37709;53.480;9.688;2023-05-24T05:40:41;19.13;;;7.40;;
2406;SDS011;37709;53.480;9.688;2023-05-24T05:43:09;26.73;;;8.47;;
2406;SDS011;37709;53.480;9.688;2023-05-24T05:45:36;32.43;;;8.40;;
2406;SDS011;37709;53.480;9.688;2023-05-24T05:48:04;23.63;;;8.00;;
2406;SDS011;37709;53.480;9.688;2023-05-24T05:50:31;20.73;;;7.23;;
2406;SDS011;37709;53.480;9.688;2023-05-24T05:52:59;23.53;;;8.00;;
2406;SDS011;37709;53.480;9.688;2023-05-24T05:55:26;16.43;;;6.60;;
2406;SDS011;37709;53.480;9.688;2023-05-24T05:57:53;18.67;;;8.70;;
2406;SDS011;37709;53.480;9.688;2023-05-24T06:00:20;19.53;;;7.17;;
2406;SDS011;37709;53.480;9.688;2023-05-24T06:02:48;25.80;;;8.30;;
2406;SDS011;37709;53.480;9.688;2023-05-24T06:05:16;24.50;;;6.87;;
2406;SDS011;37709;53.480;9.688;2023-05-24T06:07:44;22.03;;;7.97;;
2406;SDS011;37709;53.480;9.688;2023-05-24T06:10:12;22.10;;;6.50;;
2406;SDS011;37709;53.480;9.688;2023-05-24T06:12:40;20.33;;;8.13;;
2406;SDS011;37709;53.480;9.688;2023-05-24T06:15:07;21.53;;;7.50;;
2406;SDS011;37709;53.480;9.688;2023-05-24T06:17:35;19.80;;;6.70;;
2406;SDS011;37709;53.480;9.688;2023-05-24T06:20:03;22.67;;;7.67;;
2406;SDS011;37709;53.480;9.688;2023-05-24T06:22:33;19.77;;;6.93;;
2406;SDS011;37709;53.480;9.688;2023-05-24T06:25:02;18.07;;;7.30;;
2406;SDS011;37709;53.480;9.688;2023-05-24T06:27:31;18.10;;;6.43;;
2406;SDS011;37709;53.480;9.688;2023-05-24T06:29:58;18.47;;;6.37;;
2406;SDS011;37709;53.480;9.688;2023-05-24T06:32:26;18.73;;;6.97;;
2406;SDS011;37709;53.480;9.688;2023-05-24T06:34:53;26.40;;;7.60;;
2406;SDS011;37709;53.480;9.688;2023-05-24T06:37:21;20.07;;;7.00;;
2406;SDS011;37709;53.480;9.688;2023-05-24T06:39:51;13.63;;;6.60;;
2406;SDS011;37709;53.480;9.688;2023-05-24T06:42:18;20.57;;;6.63;;
2406;SDS011;37709;53.480;9.688;2023-05-24T06:44:46;17.57;;;7.03;;
2406;SDS011;37709;53.480;9.688;2023-05-24T06:47:13;23.70;;;6.67;;
2406;SDS011;37709;53.480;9.688;2023-05-24T06:49:41;23.13;;;7.60;;
2406;SDS011;37709;53.480;9.688;2023-05-24T06:52:08;21.00;;;7.27;;
2406;SDS011;37709;53.480;9.688;2023-05-24T06:54:36;19.43;;;7.80;;
2406;SDS011;37709;53.480;9.688;2023-05-24T06:57:04;15.67;;;7.23;;
2406;SDS011;37709;53.480;9.688;2023-05-24T06:59:31;19.73;;;6.30;;
2406;SDS011;37709;53.480;9.688;2023-05-24T07:01:59;21.80;;;7.00;;
2406;SDS011;37709;53.480;9.688;2023-05-24T07:04:29;16.93;;;6.40;;
2406;SDS011;37709;53.480;9.688;2023-05-24T07:06:57;23.13;;;8.93;;
2406;SDS011;37709;53.480;9.688;2023-05-24T07:09:24;21.33;;;6.30;;
2406;SDS011;37709;53.480;9.688;2023-05-24T07:11:51;17.97;;;6.93;;
2406;SDS011;37709;53.480;9.688;2023-05-24T07:14:19;20.17;;;6.90;;
2406;SDS011;37709;53.480;9.688;2023-05-24T07:16:48;22.73;;;7.40;;
2406;SDS011;37709;53.480;9.688;2023-05-24T07:19:16;25.03;;;7.23;;
2406;SDS011;37709;53.480;9.688;2023-05-24T07:21:43;14.87;;;5.80;;
2406;SDS011;37709;53.480;9.688;2023-05-24T07:24:11;17.97;;;7.57;;
2406;SDS011;37709;53.480;9.688;2023-05-24T07:26:42;21.47;;;7.20;;
2406;SDS011;37709;53.480;9.688;2023-05-24T07:29:09;16.20;;;6.60;;
2406;SDS011;37709;53.480;9.688;2023-05-24T07:31:36;21.37;;;7.13;;
2406;SDS011;37709;53.480;9.688;2023-05-24T07:34:04;18.17;;;6.70;;
2406;SDS011;37709;53.480;9.688;2023-05-24T07:36:32;20.27;;;7.43;;
2406;SDS011;37709;53.480;9.688;2023-05-24T07:39:01;23.43;;;7.90;;
2406;SDS011;37709;53.480;9.688;2023-05-24T07:41:30;32.10;;;9.20;;
2406;SDS011;37709;53.480;9.688;2023-05-24T07:43:58;27.30;;;8.20;;
2406;SDS011;37709;53.480;9.688;2023-05-24T07:46:26;26.40;;;8.70;;
2406;SDS011;37709;53.480;9.688;2023-05-24T07:48:53;25.27;;;7.70;;
2406;SDS011;37709;53.480;9.688;2023-05-24T07:51:21;27.07;;;8.83;;
2406;SDS011;37709;53.480;9.688;2023-05-24T07:53:48;26.47;;;8.40;;
2406;SDS011;37709;53.480;9.688;2023-05-24T07:56:15;25.93;;;8.00;;
2406;SDS011;37709;53.480;9.688;2023-05-24T07:58:43;30.17;;;8.57;;
2406;SDS011;37709;53.480;9.688;2023-05-24T08:01:12;26.73;;;9.07;;
2406;SDS011;37709;53.480;9.688;2023-05-24T08:03:40;23.83;;;8.50;;
2406;SDS011;37709;53.480;9.688;2023-05-24T08:06:07;31.13;;;9.90;;
2406;SDS011;37709;53.480;9.688;2023-05-24T08:08:35;34.20;;;9.83;;
2406;SDS011;37709;53.480;9.688;2023-05-24T08:11:03;28.87;;;8.87;;
2406;SDS011;37709;53.480;9.688;2023-05-24T08:13:30;24.20;;;9.63;;
2406;SDS011;37709;53.480;9.688;2023-05-24T08:15:57;27.63;;;9.27;;
2406;SDS011;37709;53.480;9.688;2023-05-24T08:18:24;29.70;;;10.23;;
2406;SDS011;37709;53.480;9.688;2023-05-24T08:20:52;27.03;;;9.93;;
2406;SDS011;37709;53.480;9.688;2023-05-24T08:23:19;23.30;;;8.43;;
2406;SDS011;37709;53.480;9.688;2023-05-24T08:25:47;32.30;;;7.63;;
2406;SDS011;37709;53.480;9.688;2023-05-24T08:28:14;24.43;;;8.33;;
2406;SDS011;37709;53.480;9.688;2023-05-24T08:30:42;25.90;;;8.67;;
2406;SDS011;37709;53.480;9.688;2023-05-24T08:33:11;27.73;;;8.77;;
2406;SDS011;37709;53.480;9.688;2023-05-24T08:35:38;29.03;;;8.47;;
2406;SDS011;37709;53.480;9.688;2023-05-24T08:38:05;19.83;;;8.27;;
2406;SDS011;37709;53.480;9.688;2023-05-24T08:40:33;24.83;;;8.13;;
2406;SDS011;37709;53.480;9.688;2023-05-24T08:43:00;28.43;;;9.23;;
2406;SDS011;37709;53.480;9.688;2023-05-24T08:45:29;31.63;;;9.60;;
2406;SDS011;37709;53.480;9.688;2023-05-24T08:47:57;21.37;;;7.67;;
2406;SDS011;37709;53.480;9.688;2023-05-24T08:50:26;28.60;;;9.87;;
2406;SDS011;37709;53.480;9.688;2023-05-24T08:52:54;23.30;;;7.63;;
2406;SDS011;37709;53.480;9.688;2023-05-24T08:55:23;28.80;;;8.63;;
2406;SDS011;37709;53.480;9.688;2023-05-24T08:57:51;23.00;;;8.80;;
2406;SDS011;37709;53.480;9.688;2023-05-24T09:00:20;29.00;;;9.50;;
2406;SDS011;37709;53.480;9.688;2023-05-24T09:02:48;24.47;;;8.90;;
2406;SDS011;37709;53.480;9.688;2023-05-24T09:05:16;23.00;;;7.83;;
2406;SDS011;37709;53.480;9.688;2023-05-24T09:07:48;20.40;;;10.10;;
2406;SDS011;37709;53.480;9.688;2023-05-24T09:10:18;23.87;;;9.10;;
2406;SDS011;37709;53.480;9.688;2023-05-24T09:12:49;22.77;;;8.70;;
2406;SDS011;37709;53.480;9.688;2023-05-24T09:15:20;26.50;;;9.07;;
2406;SDS011;37709;53.480;9.688;2023-05-24T09:17:48;21.50;;;8.17;;
2406;SDS011;37709;53.480;9.688;2023-05-24T09:20:15;23.43;;;7.77;;
2406;SDS011;37709;53.480;9.688;2023-05-24T09:22:43;21.90;;;8.70;;
2406;SDS011;37709;53.480;9.688;2023-05-24T09:25:12;27.93;;;9.57;;
2406;SDS011;37709;53.480;9.688;2023-05-24T09:27:48;24.67;;;8.13;;
2406;SDS011;37709;53.480;9.688;2023-05-24T09:30:17;18.97;;;8.10;;
2406;SDS011;37709;53.480;9.688;2023-05-24T09:32:59;18.80;;;7.83;;
2406;SDS011;37709;53.480;9.688;2023-05-24T09:35:27;27.03;;;9.70;;
2406;SDS011;37709;53.480;9.688;2023-05-24T09:37:54;19.50;;;8.87;;
2406;SDS011;37709;53.480;9.688;2023-05-24T09:40:26;25.13;;;9.10;;
2406;SDS011;37709;53.480;9.688;2023-05-24T09:43:01;26.20;;;8.37;;
2406;SDS011;37709;53.480;9.688;2023-05-24T09:45:29;19.33;;;8.27;;
2406;SDS011;37709;53.480;9.688;2023-05-24T09:47:57;19.40;;;8.77;;
2406;SDS011;37709;53.480;9.688;2023-05-24T09:50:25;22.30;;;7.83;;
2406;SDS011;37709;53.480;9.688;2023-05-24T09:52:52;14.40;;;7.10;;
2406;SDS011;37709;53.480;9.688;2023-05-24T09:55:21;20.17;;;8.53;;
2406;SDS011;37709;53.480;9.688;2023-05-24T09:57:50;18.00;;;7.40;;
2406;SDS011;37709;53.480;9.688;2023-05-24T10:00:28;16.90;;;7.80;;
2406;SDS011;37709;53.480;9.688;2023-05-24T10:03:05;16.00;;;7.07;;
2406;SDS011;37709;53.480;9.688;2023-05-24T10:05:34;19.93;;;7.30;;
2406;SDS011;37709;53.480;9.688;2023-05-24T10:08:02;16.23;;;7.13;;
2406;SDS011;37709;53.480;9.688;2023-05-24T10:10:35;14.23;;;7.13;;
2406;SDS011;37709;53.480;9.688;2023-05-24T10:13:03;18.63;;;7.27;;
2406;SDS011;37709;53.480;9.688;2023-05-24T10:15:31;16.07;;;7.30;;
2406;SDS011;37709;53.480;9.688;2023-05-24T10:17:59;19.50;;;7.70;;
2406;SDS011;37709;53.480;9.688;2023-05-24T10:20:27;22.03;;;8.20;;
2406;SDS011;37709;53.480;9.688;2023-05-24T10:23:00;20.30;;;6.60;;
2406;SDS011;37709;53.480;9.688;2023-05-24T10:25:35;15.27;;;6.80;;
2406;SDS011;37709;53.480;9.688;2023-05-24T10:28:08;18.33;;;6.00;;
2406;SDS011;37709;53.480;9.688;2023-05-24T10:30:43;16.80;;;6.17;;
2406;SDS011;37709;53.480;9.688;2023-05-24T10:33:26;14.30;;;6.10;;
2406;SDS011;37709;53.480;9.688;2023-05-24T10:35:54;11.47;;;5.60;;
2406;SDS011;37709;53.480;9.688;2023-05-24T10:38:22;19.23;;;5.97;;
2406;SDS011;37709;53.480;9.688;2023-05-24T10:40:51;12.57;;;6.80;;
2406;SDS011;37709;53.480;9.688;2023-05-24T10:43:19;14.87;;;7.40;;
2406;SDS011;37709;53.480;9.688;2023-05-24T10:45:48;15.83;;;7.27;;
2406;SDS011;37709;53.480;9.688;2023-05-24T10:50:49;12.20;;;7.73;;
2406;SDS011;37709;53.480;9.688;2023-05-24T10:53:18;15.33;;;7.60;;
2406;SDS011;37709;53.480;9.688;2023-05-24T10:55:52;18.50;;;8.50;;
2406;SDS011;37709;53.480;9.688;2023-05-24T11:01:27;12.77;;;7.30;;
2406;SDS011;37709;53.480;9.688;2023-05-24T11:04:06;15.17;;;7.33;;
2406;SDS011;37709;53.480;9.688;2023-05-24T11:06:44;16.73;;;8.70;;
2406;SDS011;37709;53.480;9.688;2023-05-24T11:09:16;12.23;;;6.30;;
2406;SDS011;37709;53.480;9.688;2023-05-24T11:11:47;11.63;;;5.60;;
2406;SDS011;37709;53.480;9.688;2023-05-24T11:14:21;12.87;;;6.30;;
2406;SDS011;37709;53.480;9.688;2023-05-24T11:16:50;16.87;;;6.50;;
2406;SDS011;37709;53.480;9.688;2023-05-24T11:19:19;14.50;;;6.50;;
2406;SDS011;37709;53.480;9.688;2023-05-24T11:21:48;8.53;;;5.17;;
2406;SDS011;37709;53.480;9.688;2023-05-24T11:24:17;10.77;;;5.87;;
2406;SDS011;37709;53.480;9.688;2023-05-24T11:26:45;12.97;;;5.93;;
2406;SDS011;37709;53.480;9.688;2023-05-24T11:29:13;9.97;;;5.60;;
2406;SDS011;37709;53.480;9.688;2023-05-24T11:31:47;9.90;;;5.10;;
2406;SDS011;37709;53.480;9.688;2023-05-24T11:34:16;11.93;;;5.90;;
2406;SDS011;37709;53.480;9.688;2023-05-24T11:36:47;16.17;;;5.80;;
2406;SDS011;37709;53.480;9.688;2023-05-24T11:39:14;12.47;;;5.30;;
2406;SDS011;37709;53.480;9.688;2023-05-24T11:41:42;14.27;;;5.10;;
2406;SDS011;37709;53.480;9.688;2023-05-24T11:44:10;11.00;;;5.97;;
2406;SDS011;37709;53.480;9.688;2023-05-24T11:46:38;11.83;;;5.77;;
2406;SDS011;37709;53.480;9.688;2023-05-24T11:49:11;10.60;;;5.37;;
2406;SDS011;37709;53.480;9.688;2023-05-24T11:51:40;10.80;;;4.60;;
2406;SDS011;37709;53.480;9.688;2023-05-24T11:54:08;10.73;;;5.80;;
2406;SDS011;37709;53.480;9.688;2023-05-24T11:56:37;10.47;;;5.00;;
2406;SDS011;37709;53.480;9.688;2023-05-24T11:59:14;9.40;;;5.43;;
2406;SDS011;37709;53.480;9.688;2023-05-24T12:01:43;11.33;;;5.67;;
2406;SDS011;37709;53.480;9.688;2023-05-24T12:04:10;12.80;;;5.80;;
2406;SDS011;37709;53.480;9.688;2023-05-24T12:06:39;9.43;;;4.87;;
2406;SDS011;37709;53.480;9.688;2023-05-24T12:09:10;9.17;;;4.87;;
2406;SDS011;37709;53.480;9.688;2023-05-24T12:11:43;9.63;;;4.77;;
2406;SDS011;37709;53.480;9.688;2023-05-24T12:14:12;8.07;;;4.37;;
2406;SDS011;37709;53.480;9.688;2023-05-24T12:16:41;11.30;;;5.13;;
2406;SDS011;37709;53.480;9.688;2023-05-24T12:19:17;11.37;;;5.53;;
2406;SDS011;37709;53.480;9.688;2023-05-24T12:21:57;12.60;;;5.07;;
2406;SDS011;37709;53.480;9.688;2023-05-24T12:24:33;10.17;;;5.07;;
2406;SDS011;37709;53.480;9.688;2023-05-24T12:27:01;13.07;;;5.40;;
2406;SDS011;37709;53.480;9.688;2023-05-24T12:29:34;11.80;;;4.90;;
2406;SDS011;37709;53.480;9.688;2023-05-24T12:32:11;7.47;;;4.83;;
2406;SDS011;37709;53.480;9.688;2023-05-24T12:34:40;9.57;;;4.77;;
2406;SDS011;37709;53.480;9.688;2023-05-24T12:37:09;8.70;;;5.23;;
2406;SDS011;37709;53.480;9.688;2023-05-24T12:39:39;10.47;;;5.53;;
2406;SDS011;37709;53.480;9.688;2023-05-24T12:42:09;11.73;;;6.40;;
2406;SDS011;37709;53.480;9.688;2023-05-24T12:44:40;10.10;;;5.70;;
2406;SDS011;37709;53.480;9.688;2023-05-24T12:47:08;10.20;;;4.73;;
2406;SDS011;37709;53.480;9.688;2023-05-24T12:49:35;10.00;;;5.07;;
2406;SDS011;37709;53.480;9.688;2023-05-24T12:52:03;12.77;;;6.20;;
2406;SDS011;37709;53.480;9.688;2023-05-24T12:54:30;11.87;;;4.77;;
2406;SDS011;37709;53.480;9.688;2023-05-24T12:56:58;14.77;;;6.00;;
2406;SDS011;37709;53.480;9.688;2023-05-24T12:59:26;17.07;;;6.10;;
2406;SDS011;37709;53.480;9.688;2023-05-24T13:01:54;14.97;;;5.90;;
2406;SDS011;37709;53.480;9.688;2023-05-24T13:04:22;17.97;;;6.40;;
2406;SDS011;37709;53.480;9.688;2023-05-24T13:06:52;11.93;;;5.30;;
2406;SDS011;37709;53.480;9.688;2023-05-24T13:09:19;16.07;;;4.90;;
2406;SDS011;37709;53.480;9.688;2023-05-24T13:11:48;12.03;;;5.17;;
2406;SDS011;37709;53.480;9.688;2023-05-24T13:14:15;14.30;;;5.37;;
2406;SDS011;37709;53.480;9.688;2023-05-24T13:16:44;16.87;;;5.90;;
2406;SDS011;37709;53.480;9.688;2023-05-24T13:19:12;16.63;;;5.50;;
2406;SDS011;37709;53.480;9.688;2023-05-24T13:21:39;11.47;;;4.97;;
2406;SDS011;37709;53.480;9.688;2023-05-24T13:24:06;11.53;;;5.47;;
2406;SDS011;37709;53.480;9.688;2023-05-24T13:26:34;12.97;;;6.37;;
2406;SDS011;37709;53.480;9.688;2023-05-24T13:29:05;17.87;;;6.43;;
2406;SDS011;37709;53.480;9.688;2023-05-24T13:31:53;15.70;;;5.67;;
2406;SDS011;37709;53.480;9.688;2023-05-24T13:34:21;11.80;;;6.07;;
2406;SDS011;37709;53.480;9.688;2023-05-24T13:36:51;13.93;;;5.60;;
2406;SDS011;37709;53.480;9.688;2023-05-24T13:39:20;15.20;;;5.63;;
2406;SDS011;37709;53.480;9.688;2023-05-24T13:41:48;13.13;;;5.90;;
2406;SDS011;37709;53.480;9.688;2023-05-24T13:44:16;10.57;;;5.80;;
2406;SDS011;37709;53.480;9.688;2023-05-24T13:46:44;15.37;;;6.20;;
2406;SDS011;37709;53.480;9.688;2023-05-24T13:49:11;12.37;;;5.07;;
2406;SDS011;37709;53.480;9.688;2023-05-24T13:51:39;15.63;;;5.80;;
2406;SDS011;37709;53.480;9.688;2023-05-24T13:54:06;12.53;;;5.13;;
2406;SDS011;37709;53.480;9.688;2023-05-24T13:56:34;12.27;;;5.93;;
2406;SDS011;37709;53.480;9.688;2023-05-24T13:59:02;13.77;;;4.83;;
2406;SDS011;37709;53.480;9.688;2023-05-24T14:01:30;11.50;;;4.93;;
2406;SDS011;37709;53.480;9.688;2023-05-24T14:04:01;12.80;;;4.87;;
2406;SDS011;37709;53.480;9.688;2023-05-24T14:06:29;12.83;;;5.70;;
2406;SDS011;37709;53.480;9.688;2023-05-24T14:08:57;12.30;;;5.90;;
2406;SDS011;37709;53.480;9.688;2023-05-24T14:11:25;14.37;;;5.40;;
2406;SDS011;37709;53.480;9.688;2023-05-24T14:13:53;15.47;;;6.30;;
2406;SDS011;37709;53.480;9.688;2023-05-24T14:16:41;12.80;;;5.97;;
2406;SDS011;37709;53.480;9.688;2023-05-24T14:19:08;12.80;;;5.63;;
2406;SDS011;37709;53.480;9.688;2023-05-24T14:21:36;10.03;;;4.87;;
2406;SDS011;37709;53.480;9.688;2023-05-24T14:24:03;12.50;;;6.27;;
2406;SDS011;37709;53.480;9.688;2023-05-24T14:26:31;12.97;;;6.23;;
2406;SDS011;37709;53.480;9.688;2023-05-24T14:28:58;12.07;;;5.70;;
2406;SDS011;37709;53.480;9.688;2023-05-24T14:31:26;15.07;;;5.50;;
2406;SDS011;37709;53.480;9.688;2023-05-24T14:33:53;10.30;;;3.93;;
2406;SDS011;37709;53.480;9.688;2023-05-24T14:36:20;12.20;;;6.03;;
2406;SDS011;37709;53.480;9.688;2023-05-24T14:38:48;10.03;;;4.97;;
2406;SDS011;37709;53.480;9.688;2023-05-24T14:41:15;13.07;;;5.50;;
2406;SDS011;37709;53.480;9.688;2023-05-24T14:43:43;11.23;;;5.40;;
2406;SDS011;37709;53.480;9.688;2023-05-24T14:46:10;11.40;;;5.40;;
2406;SDS011;37709;53.480;9.688;2023-05-24T14:48:38;14.57;;;5.53;;
2406;SDS011;37709;53.480;9.688;2023-05-24T14:51:07;12.93;;;5.17;;
2406;SDS011;37709;53.480;9.688;2023-05-24T14:53:34;12.20;;;6.47;;
2406;SDS011;37709;53.480;9.688;2023-05-24T14:56:02;11.23;;;5.07;;
2406;SDS011;37709;53.480;9.688;2023-05-24T14:58:30;9.73;;;5.03;;
2406;SDS011;37709;53.480;9.688;2023-05-24T15:00:57;11.50;;;5.47;;
2406;SDS011;37709;53.480;9.688;2023-05-24T15:03:25;10.13;;;5.30;;
2406;SDS011;37709;53.480;9.688;2023-05-24T15:05:53;12.60;;;6.20;;
2406;SDS011;37709;53.480;9.688;2023-05-24T15:08:20;9.27;;;5.07;;
2406;SDS011;37709;53.480;9.688;2023-05-24T15:10:48;9.97;;;4.40;;
2406;SDS011;37709;53.480;9.688;2023-05-24T15:13:16;11.77;;;4.83;;